Time;durP1;ratioP1;P1;durP2;ratioP2;P2;SDS_P1;SDS_P2;PMS_P1;PMS_P2;Temp;Humidity;BMP_temperature;BMP_pressure;BME280_temperature;BME280_humidity;BME280_pressure;Samples;Min_cycle;Max_cycle;Signal;HPM_P1;HPM_P2
2021/08/09 00:00:53;;;;;;;3.40;3.10;;;;;;;12.09;100.00;99263.03;10497573;28;20625;-77
2021/08/09 00:06:12;;;;;;;3.70;3.17;;;;;;;11.94;100.00;99269.81;10497194;28;20206;-79
2021/08/09 00:11:32;;;;;;;3.20;3.00;;;;;;;11.85;100.00;99262.41;10497385;28;20174;-77
2021/08/09 00:16:51;;;;;;;4.03;3.37;;;;;;;11.80;100.00;99268.31;10464128;28;20756;-77
2021/08/09 00:22:10;;;;;;;5.27;3.60;;;;;;;11.78;100.00;99273.47;10464209;28;20199;-76
2021/08/09 00:27:29;;;;;;;2.93;2.60;;;;;;;11.71;100.00;99276.28;10463682;28;20205;-77
2021/08/09 00:32:48;;;;;;;3.60;2.77;;;;;;;11.67;100.00;99272.72;10462670;28;20175;-76
2021/08/09 00:38:07;;;;;;;2.87;2.67;;;;;;;11.64;100.00;99273.53;10463623;28;20187;-78
2021/08/09 00:43:26;;;;;;;3.80;3.27;;;;;;;11.61;100.00;99271.59;10470560;28;20214;-77
2021/08/09 00:48:45;;;;;;;3.63;3.33;;;;;;;11.57;100.00;99268.84;10502921;28;20214;-77
2021/08/09 00:54:04;;;;;;;3.07;2.77;;;;;;;11.55;100.00;99282.25;10504344;28;20249;-78
2021/08/09 00:59:24;;;;;;;3.87;3.57;;;;;;;11.59;100.00;99282.22;10503215;28;20584;-77
2021/08/09 01:04:42;;;;;;;4.53;3.43;;;;;;;11.59;100.00;99280.22;10502620;28;20187;-77
2021/08/09 01:10:13;;;;;;;3.90;3.60;;;;;;;11.55;100.00;99289.72;10466391;28;20675;-77
2021/08/09 01:15:38;;;;;;;3.93;3.63;;;;;;;11.53;100.00;99281.06;10462070;28;20183;-77
2021/08/09 01:21:00;;;;;;;4.37;4.07;;;;;;;11.66;100.00;99284.94;10460976;28;20714;-77
2021/08/09 01:26:49;;;;;;;5.00;4.30;;;;;;;11.71;100.00;99284.53;10461152;28;20215;-76
2021/08/09 01:32:10;;;;;;;5.90;3.20;;;;;;;11.39;100.00;99283.84;10460457;28;20219;-77
2021/08/09 01:37:31;;;;;;;3.50;3.20;;;;;;;11.24;100.00;99285.06;10475034;28;20209;-79
2021/08/09 01:42:51;;;;;;;4.13;3.80;;;;;;;11.18;100.00;99293.00;10500254;28;21606;-79
2021/08/09 01:48:10;;;;;;;3.60;3.30;;;;;;;11.16;100.00;99289.03;10500953;28;20206;-77
2021/08/09 01:53:30;;;;;;;8.37;3.77;;;;;;;11.22;100.00;99291.00;10501172;28;20170;-79
2021/08/09 01:58:51;;;;;;;5.27;3.70;;;;;;;11.28;100.00;99296.88;10501944;28;20175;-78
2021/08/09 02:04:11;;;;;;;4.10;3.70;;;;;;;11.18;100.00;99295.75;10499572;28;20637;-77
2021/08/09 02:09:30;;;;;;;3.63;3.33;;;;;;;11.16;100.00;99292.59;10468887;28;20207;-77
2021/08/09 02:14:55;;;;;;;7.10;3.83;;;;;;;11.16;100.00;99295.34;10460005;28;20179;-78
2021/08/09 02:20:29;;;;;;;4.10;3.43;;;;;;;11.15;100.00;99298.47;10458395;28;20199;-76
2021/08/09 02:25:53;;;;;;;4.93;3.50;;;;;;;11.18;100.00;99303.19;10459373;28;20191;-77
2021/08/09 02:31:13;;;;;;;3.40;3.20;;;;;;;11.25;100.00;99297.66;10458077;28;20168;-78
2021/08/09 02:36:33;;;;;;;3.50;3.20;;;;;;;11.41;100.00;99306.25;10468422;28;20596;-79
2021/08/09 02:41:52;;;;;;;3.83;3.53;;;;;;;11.50;100.00;99307.44;10498362;28;20219;-78
2021/08/09 02:47:14;;;;;;;3.87;3.60;;;;;;;11.48;100.00;99309.00;10498347;28;20194;-78
2021/08/09 02:52:35;;;;;;;3.90;3.60;;;;;;;11.53;100.00;99305.88;10499747;28;20183;-78
2021/08/09 02:57:55;;;;;;;4.03;3.63;;;;;;;11.53;100.00;99297.59;10499455;28;20178;-78
2021/08/09 03:03:20;;;;;;;3.00;2.67;;;;;;;11.48;100.00;99301.53;10497147;28;20571;-79
2021/08/09 03:08:40;;;;;;;2.93;2.63;;;;;;;11.43;100.00;99314.91;10473078;28;20219;-79
2021/08/09 03:13:59;;;;;;;3.70;3.40;;;;;;;11.37;100.00;99317.28;10498905;28;20186;-79
2021/08/09 03:19:19;;;;;;;3.50;3.10;;;;;;;11.35;100.00;99321.63;10496437;28;20202;-78
2021/08/09 03:24:38;;;;;;;3.10;2.90;;;;;;;11.20;100.00;99317.38;10498472;28;20249;-78
2021/08/09 03:29:58;;;;;;;4.07;3.57;;;;;;;11.07;100.00;99324.44;10497807;28;20689;-78
2021/08/09 03:35:17;;;;;;;4.13;3.10;;;;;;;11.00;100.00;99327.22;10495167;28;20175;-78
2021/08/09 03:40:36;;;;;;;4.70;3.07;;;;;;;10.94;100.00;99331.56;10456391;28;20607;-79
2021/08/09 03:45:54;;;;;;;4.40;3.43;;;;;;;10.88;100.00;99333.16;10456460;28;20207;-79
2021/08/09 03:51:13;;;;;;;6.00;3.40;;;;;;;10.92;100.00;99336.66;10455699;28;20650;-77
2021/08/09 03:56:36;;;;;;;4.20;3.80;;;;;;;11.12;100.00;99332.31;10456234;28;20595;-78
2021/08/09 04:01:55;;;;;;;5.60;3.73;;;;;;;10.90;100.00;99339.06;10454193;28;20175;-78
2021/08/09 04:07:14;;;;;;;6.57;4.00;;;;;;;10.75;100.00;99345.72;10472895;28;20217;-77
2021/08/09 04:12:33;;;;;;;3.83;3.53;;;;;;;10.70;100.00;99346.13;10497184;28;20171;-77
2021/08/09 04:17:52;;;;;;;4.43;3.70;;;;;;;10.69;100.00;99339.06;10495912;28;20245;-78
2021/08/09 04:23:11;;;;;;;4.13;3.83;;;;;;;10.71;100.00;99341.41;10497014;28;20251;-78
2021/08/09 04:28:30;;;;;;;6.30;4.90;;;;;;;10.71;100.00;99336.69;10495783;28;20293;-78
2021/08/09 04:33:50;;;;;;;6.70;4.30;;;;;;;10.78;100.00;99330.41;10495684;28;20191;-77
2021/08/09 04:39:09;;;;;;;3.03;2.73;;;;;;;10.90;100.00;99332.75;10459763;28;20666;-78
2021/08/09 04:44:28;;;;;;;3.50;3.20;;;;;;;11.00;100.00;99331.97;10455287;28;20521;-78
2021/08/09 04:49:47;;;;;;;4.73;4.00;;;;;;;11.05;100.00;99331.53;10453421;28;20634;-78
2021/08/09 04:55:08;;;;;;;4.00;3.70;;;;;;;11.08;100.00;99330.75;10454818;28;20183;-77
2021/08/09 05:00:27;;;;;;;4.30;3.87;;;;;;;11.19;100.00;99326.81;10457389;28;20187;-77
2021/08/09 05:05:46;;;;;;;4.23;3.93;;;;;;;11.21;100.00;99325.22;10461217;28;20167;-78
2021/08/09 05:11:05;;;;;;;4.60;4.20;;;;;;;11.42;100.00;99321.63;10462383;28;20522;-77
2021/08/09 05:16:24;;;;;;;7.60;5.00;;;;;;;11.47;100.00;99326.72;10461054;28;20191;-78
2021/08/09 05:21:44;;;;;;;4.97;4.57;;;;;;;11.62;100.00;99325.50;10461822;28;20274;-77
2021/08/09 05:27:03;;;;;;;5.83;5.10;;;;;;;11.74;100.00;99320.34;10462738;28;20199;-76
2021/08/09 05:32:22;;;;;;;6.37;5.37;;;;;;;11.97;100.00;99318.63;10461576;28;20183;-77
2021/08/09 05:37:41;;;;;;;5.67;5.07;;;;;;;12.30;100.00;99331.81;10469608;28;20555;-76
2021/08/09 05:43:00;;;;;;;10.63;5.40;;;;;;;12.65;100.00;99336.28;10464956;28;20222;-77
2021/08/09 05:48:19;;;;;;;9.80;4.87;;;;;;;12.98;100.00;99328.16;10500937;28;20206;-76
2021/08/09 05:53:38;;;;;;;5.80;4.43;;;;;;;13.16;100.00;99342.56;10460856;28;20207;-76
2021/08/09 05:58:57;;;;;;;5.80;4.60;;;;;;;13.42;100.00;99339.13;10460550;28;20179;-77
2021/08/09 06:04:16;;;;;;;6.67;6.00;;;;;;;13.74;100.00;99327.28;10458219;28;20262;-78
2021/08/09 06:09:35;;;;;;;7.53;4.13;;;;;;;14.04;100.00;99330.06;10460690;28;20211;-76
2021/08/09 06:14:53;;;;;;;4.77;4.37;;;;;;;14.34;100.00;99341.88;10459411;28;20254;-77
2021/08/09 06:20:13;;;;;;;6.70;5.10;;;;;;;14.54;100.00;99341.97;10458512;28;20200;-77
2021/08/09 06:25:32;;;;;;;9.83;4.77;;;;;;;14.83;100.00;99329.25;10459687;28;20167;-77
2021/08/09 06:30:51;;;;;;;11.90;4.57;;;;;;;15.20;100.00;99340.88;10459384;28;20622;-77
2021/08/09 06:36:10;;;;;;;5.53;4.67;;;;;;;15.62;98.41;99351.97;10466229;28;20171;-77
2021/08/09 06:41:31;;;;;;;4.93;4.50;;;;;;;15.84;96.38;99350.31;10499435;28;20207;-77
2021/08/09 06:46:50;;;;;;;4.53;4.13;;;;;;;16.24;96.72;99346.28;10498443;28;20199;-77
2021/08/09 06:52:09;;;;;;;5.80;4.57;;;;;;;16.73;93.43;99347.94;10499732;28;20261;-76
2021/08/09 06:57:28;;;;;;;4.17;3.40;;;;;;;17.26;89.76;99345.38;10499573;28;20178;-77
2021/08/09 07:02:47;;;;;;;3.70;3.40;;;;;;;17.51;87.87;99346.34;10497386;28;20171;-77
2021/08/09 07:08:06;;;;;;;3.87;3.50;;;;;;;17.84;86.94;99342.97;10472831;28;20219;-77
2021/08/09 07:13:25;;;;;;;3.60;3.17;;;;;;;18.22;82.76;99340.31;10498654;28;20183;-76
2021/08/09 07:18:44;;;;;;;6.00;3.67;;;;;;;18.53;80.87;99326.19;10497344;28;20198;-76
2021/08/09 07:24:03;;;;;;;4.33;3.93;;;;;;;18.94;78.64;99333.63;10498759;28;20202;-77
2021/08/09 07:29:22;;;;;;;2.60;2.40;;;;;;;19.59;75.88;99324.94;10498025;28;20617;-77
2021/08/09 07:34:41;;;;;;;3.73;3.13;;;;;;;20.21;74.11;99335.78;10497188;28;20198;-76
2021/08/09 07:40:00;;;;;;;3.27;2.87;;;;;;;20.83;70.72;99345.72;10456496;28;20231;-76
2021/08/09 07:45:20;;;;;;;4.60;2.77;;;;;;;21.25;69.99;99343.94;10456659;28;20183;-76
2021/08/09 07:50:40;;;;;;;3.33;2.43;;;;;;;21.42;67.67;99350.78;10455400;28;20202;-75
2021/08/09 07:55:59;;;;;;;3.20;2.83;;;;;;;21.19;68.72;99343.78;10456417;28;20183;-75
2021/08/09 08:01:18;;;;;;;3.70;3.20;;;;;;;21.46;66.80;99343.03;10455083;28;20171;-77
2021/08/09 08:06:37;;;;;;;3.30;2.17;;;;;;;22.24;66.24;99342.66;10470553;28;20206;-76
2021/08/09 08:11:56;;;;;;;2.60;2.40;;;;;;;23.04;63.00;99335.22;10455952;28;20175;-77
2021/08/09 08:17:15;;;;;;;3.50;2.60;;;;;;;23.64;58.97;99345.72;10453527;28;20171;-78
2021/08/09 08:22:34;;;;;;;2.93;2.73;;;;;;;23.18;60.71;99334.53;10454737;28;20175;-77
2021/08/09 08:27:53;;;;;;;3.10;2.47;;;;;;;23.45;60.65;99319.03;10454537;28;20297;-76
2021/08/09 08:33:12;;;;;;;3.37;3.07;;;;;;;23.77;57.22;99317.38;10454290;28;20646;-77
2021/08/09 08:38:31;;;;;;;4.80;2.77;;;;;;;24.57;57.05;99329.81;10491365;28;20182;-78
2021/08/09 08:43:50;;;;;;;2.50;2.30;;;;;;;25.51;54.86;99332.72;10503896;28;20249;-79
2021/08/09 08:49:14;;;;;;;2.30;2.00;;;;;;;25.57;48.05;99327.94;10502223;28;20669;-76
2021/08/09 08:54:33;;;;;;;2.17;1.67;;;;;;;24.04;49.72;99334.75;10503517;28;20202;-77
2021/08/09 08:59:51;;;;;;;3.00;1.80;;;;;;;23.41;52.38;99342.94;10503582;28;20171;-76
2021/08/09 09:05:19;;;;;;;1.70;1.60;;;;;;;22.79;53.73;99344.84;10495846;28;20175;-78
2021/08/09 09:10:38;;;;;;;1.90;1.70;;;;;;;23.63;52.76;99329.31;10462134;28;20661;-77
2021/08/09 09:15:59;;;;;;;1.50;1.40;;;;;;;24.42;50.30;99335.44;10461487;28;20175;-77
2021/08/09 09:21:31;;;;;;;8.50;1.57;;;;;;;23.04;47.48;99338.03;10483875;28;20190;-77
2021/08/09 09:26:56;;;;;;;3.00;1.37;;;;;;;23.14;50.58;99343.09;10502248;28;20211;-76
2021/08/09 09:32:20;;;;;;;4.47;2.10;;;;;;;24.08;48.85;99343.00;10501866;28;20240;-77
2021/08/09 09:37:40;;;;;;;3.10;1.80;;;;;;;24.21;46.88;99347.09;10475838;28;20171;-77
2021/08/09 09:42:59;;;;;;;3.10;1.60;;;;;;;23.85;49.00;99336.19;10460684;28;20219;-75
2021/08/09 09:48:31;;;;;;;2.30;2.00;;;;;;;23.12;49.46;99350.44;10458246;28;20566;-77
2021/08/09 09:53:51;;;;;;;3.87;2.10;;;;;;;23.76;48.81;99347.50;10460990;28;20167;-76
2021/08/09 09:59:10;;;;;;;4.83;1.60;;;;;;;24.55;46.29;99338.00;10460693;28;20199;-78
2021/08/09 10:04:29;;;;;;;2.50;1.83;;;;;;;25.58;43.61;99335.13;10462217;28;20622;-76
2021/08/09 10:09:49;;;;;;;2.00;1.63;;;;;;;24.32;45.21;99341.63;10487948;28;20210;-77
2021/08/09 10:15:09;;;;;;;1.80;1.60;;;;;;;24.13;45.19;99341.06;10481287;28;20187;-77
2021/08/09 10:20:28;;;;;;;5.10;1.93;;;;;;;24.71;44.20;99346.69;10458596;28;20195;-77
2021/08/09 10:25:50;;;;;;;1.87;1.77;;;;;;;25.05;41.89;99341.06;10465864;28;20184;-77
2021/08/09 10:31:22;;;;;;;2.00;1.63;;;;;;;25.42;41.78;99339.31;10497788;28;20587;-77
2021/08/09 10:37:07;;;;;;;2.27;1.70;;;;;;;26.40;41.04;99338.88;10500584;28;20539;-77
2021/08/09 10:42:43;;;;;;;2.93;1.93;;;;;;;24.99;42.80;99340.22;10499868;28;20579;-77
2021/08/09 10:48:04;;;;;;;3.57;1.50;;;;;;;24.82;42.56;99346.06;10497675;28;20210;-77
2021/08/09 10:53:27;;;;;;;1.83;1.50;;;;;;;24.45;40.90;99323.25;10498962;28;20178;-76
2021/08/09 10:58:46;;;;;;;3.30;1.60;;;;;;;26.89;38.63;99323.13;10493037;28;20179;-77
2021/08/09 11:04:09;;;;;;;1.97;1.77;;;;;;;27.33;37.42;99320.56;10497256;28;20204;-76
2021/08/09 11:09:31;;;;;;;1.57;1.37;;;;;;;25.77;39.97;99320.25;10468087;28;20211;-76
2021/08/09 11:15:00;;;;;;;2.80;1.67;;;;;;;25.84;40.61;99314.22;10456728;28;20179;-77
2021/08/09 11:20:33;;;;;;;2.43;1.80;;;;;;;25.34;41.67;99306.41;10455290;28;20207;-77
2021/08/09 11:25:52;;;;;;;1.53;1.40;;;;;;;24.87;42.30;99309.56;10456310;28;20179;-76
2021/08/09 11:31:11;;;;;;;1.30;1.10;;;;;;;25.18;39.88;99301.31;10493998;28;20575;-77
2021/08/09 11:36:30;;;;;;;2.70;1.50;;;;;;;25.24;39.72;99297.31;10497355;28;20166;-77
2021/08/09 11:41:54;;;;;;;3.33;1.33;;;;;;;24.39;42.94;99307.53;10496777;28;20251;-77
2021/08/09 11:47:22;;;;;;;1.30;1.20;;;;;;;24.46;42.21;99304.34;10495487;28;20571;-78
2021/08/09 11:52:41;;;;;;;5.63;1.80;;;;;;;25.49;41.15;99299.44;10498000;28;20175;-77
2021/08/09 11:58:01;;;;;;;1.70;1.40;;;;;;;25.73;40.73;99299.97;10476258;28;20582;-78
2021/08/09 12:03:22;;;;;;;1.50;1.30;;;;;;;25.47;40.25;99301.19;10454285;28;20206;-77
2021/08/09 12:08:58;;;;;;;2.83;1.47;;;;;;;23.84;43.81;99302.97;10484673;28;20250;-77
2021/08/09 12:14:22;;;;;;;1.40;1.20;;;;;;;23.90;43.43;99299.00;10495704;28;20183;-76
2021/08/09 12:19:46;;;;;;;1.50;1.20;;;;;;;24.14;43.38;99306.06;10493325;28;20207;-78
2021/08/09 12:25:08;;;;;;;2.37;1.40;;;;;;;23.72;44.27;99309.59;10461829;28;20630;-77
2021/08/09 12:30:27;;;;;;;2.60;1.40;;;;;;;24.46;43.72;99315.59;10454125;28;20207;-77
2021/08/09 12:35:47;;;;;;;2.27;1.73;;;;;;;24.46;43.77;99318.41;10453270;28;20171;-78
2021/08/09 12:41:06;;;;;;;1.47;1.37;;;;;;;25.46;41.04;99313.72;10454093;28;20227;-77
2021/08/09 12:46:26;;;;;;;3.10;1.20;;;;;;;24.72;40.52;99313.69;10461904;28;20214;-78
2021/08/09 12:51:45;;;;;;;2.50;1.70;;;;;;;24.90;41.60;99302.19;10496431;28;20190;-77
2021/08/09 12:57:04;;;;;;;1.50;1.40;;;;;;;24.45;42.09;99297.16;10496739;28;20187;-77
2021/08/09 13:02:23;;;;;;;1.30;1.07;;;;;;;24.88;42.35;99297.06;10495235;28;20257;-77
2021/08/09 13:07:42;;;;;;;1.73;1.20;;;;;;;25.38;40.68;99293.66;10496221;28;20631;-77
2021/08/09 13:13:01;;;;;;;1.57;1.30;;;;;;;24.92;40.01;99291.22;10496197;28;20178;-77
2021/08/09 13:18:23;;;;;;;1.30;1.10;;;;;;;25.00;40.37;99279.81;10494246;28;20672;-76
2021/08/09 13:23:42;;;;;;;3.43;1.33;;;;;;;25.12;37.77;99287.16;10497386;28;20214;-77
2021/08/09 13:29:01;;;;;;;1.90;1.50;;;;;;;25.39;38.90;99278.31;10501982;28;20314;-77
2021/08/09 13:34:20;;;;;;;2.43;1.27;;;;;;;25.10;36.43;99284.09;10501893;28;20182;-77
2021/08/09 13:39:40;;;;;;;1.47;1.33;;;;;;;25.87;39.74;99273.72;10502704;28;20226;-77
2021/08/09 13:44:59;;;;;;;1.83;1.30;;;;;;;25.26;39.44;99280.72;10498320;28;20183;-76
2021/08/09 13:50:18;;;;;;;1.70;1.60;;;;;;;24.41;40.42;99285.28;10489593;28;20203;-75
2021/08/09 13:55:37;;;;;;;2.17;1.37;;;;;;;24.97;40.24;99280.03;10496030;28;20191;-77
2021/08/09 14:00:55;;;;;;;1.57;1.47;;;;;;;25.34;39.92;99275.41;10473694;28;20545;-78
2021/08/09 14:06:14;;;;;;;2.00;1.40;;;;;;;25.41;39.38;99274.97;10459395;28;20225;-76
2021/08/09 14:11:33;;;;;;;2.83;1.50;;;;;;;24.53;38.70;99270.19;10460086;28;20175;-77
2021/08/09 14:16:52;;;;;;;4.33;1.70;;;;;;;24.68;41.05;99270.91;10458937;28;20195;-76
2021/08/09 14:22:11;;;;;;;2.03;1.43;;;;;;;25.02;40.81;99274.50;10459771;28;20195;-77
2021/08/09 14:27:30;;;;;;;2.07;1.50;;;;;;;24.58;42.01;99261.81;10459468;28;20207;-77
2021/08/09 14:32:49;;;;;;;3.00;1.60;;;;;;;25.79;40.64;99258.53;10495302;28;20190;-77
2021/08/09 14:38:08;;;;;;;3.00;2.50;;;;;;;25.51;40.84;99268.72;10483576;28;20186;-76
2021/08/09 14:43:27;;;;;;;1.93;1.40;;;;;;;24.83;41.30;99268.81;10499398;28;20693;-77
2021/08/09 14:48:48;;;;;;;1.53;1.43;;;;;;;25.61;42.00;99266.50;10472629;28;20215;-77
2021/08/09 14:54:07;;;;;;;1.73;1.57;;;;;;;26.24;41.06;99244.34;10458837;28;20183;-77
2021/08/09 14:59:26;;;;;;;3.53;1.40;;;;;;;27.12;38.11;99234.44;10458438;28;20642;-78
2021/08/09 15:04:46;;;;;;;2.00;1.80;;;;;;;27.70;37.85;99236.44;10455370;28;20205;-77
2021/08/09 15:10:05;;;;;;;2.40;1.83;;;;;;;26.31;40.34;99243.88;10456463;28;20203;-77
2021/08/09 15:15:24;;;;;;;2.37;1.57;;;;;;;25.95;41.51;99241.00;10457919;28;20187;-77
2021/08/09 15:20:43;;;;;;;3.40;1.70;;;;;;;25.23;43.34;99250.72;10496245;28;20178;-76
2021/08/09 15:26:03;;;;;;;2.73;1.80;;;;;;;24.87;42.80;99246.88;10498625;28;20171;-76
2021/08/09 15:31:22;;;;;;;5.00;1.57;;;;;;;24.61;44.11;99248.81;10496293;28;20190;-76
2021/08/09 15:36:41;;;;;;;1.70;1.40;;;;;;;23.97;46.30;99236.00;10498405;28;20210;-77
2021/08/09 15:42:00;;;;;;;2.40;1.60;;;;;;;24.03;46.12;99243.25;10497734;28;20218;-77
2021/08/09 15:47:19;;;;;;;2.37;1.53;;;;;;;24.09;44.81;99235.69;10483609;28;20206;-76
2021/08/09 15:52:42;;;;;;;2.43;1.80;;;;;;;24.23;46.72;99232.88;10495865;28;20278;-77
2021/08/09 15:58:01;;;;;;;2.00;1.80;;;;;;;24.53;45.80;99242.06;10497643;28;20664;-75
2021/08/09 16:03:20;;;;;;;2.40;1.97;;;;;;;24.85;45.78;99236.09;10496541;28;20174;-76
2021/08/09 16:08:40;;;;;;;2.03;1.20;;;;;;;24.75;45.25;99248.78;10496092;28;20255;-78
2021/08/09 16:13:59;;;;;;;2.13;1.60;;;;;;;25.29;42.63;99248.72;10470202;28;20637;-76
2021/08/09 16:19:18;;;;;;;1.70;1.60;;;;;;;24.90;44.45;99255.13;10496047;28;20545;-77
2021/08/09 16:24:37;;;;;;;2.80;1.20;;;;;;;25.31;43.28;99253.88;10478700;28;20186;-77
2021/08/09 16:29:56;;;;;;;2.80;1.60;;;;;;;25.55;43.64;99260.06;10453969;28;20203;-77
2021/08/09 16:35:15;;;;;;;2.03;1.83;;;;;;;24.70;43.54;99259.94;10455359;28;20187;-77
2021/08/09 16:40:36;;;;;;;2.30;1.67;;;;;;;24.45;43.55;99257.78;10455253;28;20223;-78
2021/08/09 16:45:56;;;;;;;1.83;1.73;;;;;;;23.82;45.41;99264.13;10457609;28;20179;-77
2021/08/09 16:51:16;;;;;;;2.37;1.87;;;;;;;23.64;46.28;99269.09;10473742;28;20542;-76
2021/08/09 16:56:38;;;;;;;1.80;1.70;;;;;;;23.75;46.99;99263.72;10504525;28;20526;-77
2021/08/09 17:01:57;;;;;;;4.13;1.80;;;;;;;23.28;47.79;99263.78;10517278;28;20191;-77
2021/08/09 17:07:16;;;;;;;1.83;1.40;;;;;;;23.31;48.43;99257.19;10462775;28;20671;-77
2021/08/09 17:12:35;;;;;;;3.10;2.10;;;;;;;23.05;49.46;99258.97;10461681;28;20180;-77
2021/08/09 17:17:54;;;;;;;2.23;1.70;;;;;;;22.80;49.42;99255.84;10461218;28;20230;-77
2021/08/09 17:23:16;;;;;;;3.23;1.90;;;;;;;22.92;50.30;99254.84;10462148;28;20179;-77
2021/08/09 17:28:35;;;;;;;2.50;1.57;;;;;;;22.92;50.44;99257.63;10461751;28;20211;-77
2021/08/09 17:33:54;;;;;;;2.47;1.90;;;;;;;22.93;50.58;99254.34;10480708;28;20191;-77
2021/08/09 17:39:13;;;;;;;2.60;1.70;;;;;;;22.76;51.07;99252.44;10502838;28;20230;-77
2021/08/09 17:44:32;;;;;;;2.07;1.87;;;;;;;22.41;51.73;99262.59;10502691;28;20250;-78
2021/08/09 17:49:53;;;;;;;2.07;1.87;;;;;;;23.16;50.38;99250.00;10499965;28;20648;-77
2021/08/09 17:55:13;;;;;;;3.63;1.80;;;;;;;23.88;48.04;99250.13;10502514;28;20175;-77
2021/08/09 18:00:32;;;;;;;2.40;2.00;;;;;;;25.06;45.82;99243.31;10486468;28;20183;-77
2021/08/09 18:05:51;;;;;;;3.17;2.27;;;;;;;23.71;49.19;99251.84;10469499;28;20190;-77
2021/08/09 18:11:10;;;;;;;2.00;1.80;;;;;;;22.74;52.63;99252.91;10499842;28;20182;-77
2021/08/09 18:16:30;;;;;;;5.60;2.00;;;;;;;22.41;53.54;99262.59;10499115;28;20198;-77
2021/08/09 18:21:50;;;;;;;2.07;1.87;;;;;;;22.15;55.19;99261.41;10501387;28;20201;-77
2021/08/09 18:27:09;;;;;;;2.47;2.27;;;;;;;22.00;56.33;99273.78;10500088;28;20289;-77
2021/08/09 18:32:28;;;;;;;3.70;2.00;;;;;;;21.79;57.11;99272.75;10498811;28;20296;-77
2021/08/09 18:37:46;;;;;;;4.70;2.07;;;;;;;21.60;58.41;99278.03;10499131;28;20186;-77
2021/08/09 18:43:05;;;;;;;9.40;2.33;;;;;;;21.51;58.98;99272.41;10499752;28;20215;-77
2021/08/09 18:48:24;;;;;;;5.10;1.73;;;;;;;21.56;58.86;99278.19;10498720;28;20665;-77
2021/08/09 18:53:43;;;;;;;2.30;2.10;;;;;;;21.48;59.30;99287.38;10496547;28;20253;-77
2021/08/09 18:59:02;;;;;;;3.50;1.93;;;;;;;21.33;60.05;99294.81;10461991;28;20210;-77
2021/08/09 19:04:22;;;;;;;2.73;2.07;;;;;;;21.09;61.64;99296.66;10493754;28;20219;-77
2021/08/09 19:09:46;;;;;;;2.10;1.90;;;;;;;20.85;63.13;99294.91;10498839;28;20206;-77
2021/08/09 19:15:06;;;;;;;2.10;2.00;;;;;;;20.58;65.24;99292.78;10497464;28;21896;-78
2021/08/09 19:20:25;;;;;;;5.70;2.40;;;;;;;20.28;67.39;99301.97;10501684;28;20187;-75
2021/08/09 19:25:44;;;;;;;2.27;2.10;;;;;;;19.97;69.44;99302.41;10496936;28;20179;-76
2021/08/09 19:31:05;;;;;;;5.00;2.40;;;;;;;19.77;70.39;99296.38;10484616;28;20207;-74
2021/08/09 19:36:24;;;;;;;3.00;2.73;;;;;;;19.61;75.71;99297.34;10492638;28;20665;-76
2021/08/09 19:41:43;;;;;;;2.80;2.50;;;;;;;19.35;76.50;99301.47;10497996;28;20688;-75
2021/08/09 19:47:02;;;;;;;4.53;2.80;;;;;;;19.16;79.86;99307.34;10496896;28;20645;-77
2021/08/09 19:52:21;;;;;;;3.33;2.90;;;;;;;18.91;77.93;99299.03;10497085;28;20166;-75
2021/08/09 19:57:40;;;;;;;3.53;3.00;;;;;;;18.83;78.19;99306.06;10497822;28;20241;-76
2021/08/09 20:02:59;;;;;;;4.30;2.60;;;;;;;18.60;79.26;99311.25;10484938;28;20577;-76
2021/08/09 20:08:18;;;;;;;4.00;2.70;;;;;;;18.38;80.57;99304.75;10454977;28;20206;-75
2021/08/09 20:13:37;;;;;;;2.67;2.20;;;;;;;18.25;81.46;99303.22;10455142;28;20277;-76
2021/08/09 20:18:57;;;;;;;2.63;2.43;;;;;;;18.16;81.35;99314.22;10454750;28;20167;-75
2021/08/09 20:24:16;;;;;;;3.37;2.17;;;;;;;17.88;82.79;99315.03;10455002;28;20581;-76
2021/08/09 20:29:40;;;;;;;3.97;2.50;;;;;;;17.96;83.11;99317.19;10455267;28;20584;-76
2021/08/09 20:34:59;;;;;;;9.00;3.00;;;;;;;17.83;85.03;99316.38;10497231;28;20194;-76
2021/08/09 20:40:18;;;;;;;5.33;3.00;;;;;;;17.73;85.57;99323.03;10505030;28;20214;-76
2021/08/09 20:45:37;;;;;;;4.20;3.53;;;;;;;17.62;86.19;99321.75;10505060;28;20179;-76
2021/08/09 20:50:55;;;;;;;2.70;2.50;;;;;;;17.53;88.21;99316.03;10503161;28;20206;-74
2021/08/09 20:56:14;;;;;;;5.23;2.57;;;;;;;17.47;89.84;99322.59;10504725;28;20174;-76
2021/08/09 21:01:34;;;;;;;8.20;2.67;;;;;;;17.40;90.52;99320.78;10493836;28;20634;-76
2021/08/09 21:06:53;;;;;;;2.90;2.57;;;;;;;17.42;89.47;99334.25;10462842;28;20191;-76
2021/08/09 21:12:12;;;;;;;3.00;2.70;;;;;;;17.46;90.06;99332.94;10461757;28;20630;-75
2021/08/09 21:17:31;;;;;;;5.07;3.37;;;;;;;17.27;91.02;99327.47;10461411;28;20262;-75
2021/08/09 21:22:50;;;;;;;2.33;2.13;;;;;;;17.44;89.04;99340.16;10461081;28;20180;-75
2021/08/09 21:28:09;;;;;;;4.57;2.37;;;;;;;17.16;89.70;99350.00;10461928;28;20215;-75
2021/08/09 21:33:28;;;;;;;6.50;3.00;;;;;;;17.05;89.63;99349.50;10487861;28;20171;-75
2021/08/09 21:38:46;;;;;;;4.43;2.80;;;;;;;16.90;91.43;99351.06;10501902;28;20166;-75
2021/08/09 21:44:05;;;;;;;4.83;2.97;;;;;;;16.74;91.72;99344.75;10502754;28;20186;-75
2021/08/09 21:49:24;;;;;;;9.33;3.13;;;;;;;16.76;92.41;99347.09;10501059;28;20668;-75
2021/08/09 21:54:43;;;;;;;4.17;2.70;;;;;;;16.76;93.19;99347.84;10492996;28;20175;-76
2021/08/09 22:00:08;;;;;;;4.17;2.73;;;;;;;16.71;93.63;99340.03;10501378;28;20543;-75
2021/08/09 22:05:28;;;;;;;3.40;2.80;;;;;;;16.45;94.79;99343.06;10500816;28;20187;-75
2021/08/09 22:10:47;;;;;;;3.47;3.17;;;;;;;16.25;96.39;99345.88;10501353;28;20645;-75
2021/08/09 22:16:05;;;;;;;3.50;3.20;;;;;;;16.10;98.22;99343.81;10501577;28;20668;-75
2021/08/09 22:21:25;;;;;;;4.20;2.93;;;;;;;16.17;97.25;99340.88;10500403;28;20175;-75
2021/08/09 22:26:43;;;;;;;3.20;2.60;;;;;;;16.06;97.98;99337.56;10464486;28;20199;-76
2021/08/09 22:32:03;;;;;;;5.93;3.10;;;;;;;16.02;97.73;99326.56;10457427;28;20183;-75
2021/08/09 22:37:22;;;;;;;3.03;2.83;;;;;;;16.07;97.11;99326.03;10459493;28;20506;-75
2021/08/09 22:42:40;;;;;;;3.30;3.00;;;;;;;15.99;97.12;99337.72;10458708;28;20215;-75
2021/08/09 22:47:59;;;;;;;6.63;3.40;;;;;;;15.85;100.00;99323.38;10457711;28;20665;-75
2021/08/09 22:53:18;;;;;;;4.23;3.30;;;;;;;15.59;100.00;99327.84;10465686;28;20222;-75
2021/08/09 22:58:38;;;;;;;3.73;3.40;;;;;;;15.53;100.00;99332.31;10499520;28;20250;-75
2021/08/09 23:03:57;;;;;;;3.30;3.00;;;;;;;15.48;100.00;99338.38;10497415;28;20624;-75
2021/08/09 23:09:16;;;;;;;3.60;3.30;;;;;;;15.33;100.00;99331.53;10498135;28;20206;-75
2021/08/09 23:14:36;;;;;;;5.87;3.70;;;;;;;15.29;100.00;99344.66;10499214;28;20191;-75
2021/08/09 23:19:54;;;;;;;3.50;2.90;;;;;;;15.39;100.00;99338.16;10496689;28;20617;-75
2021/08/09 23:25:13;;;;;;;4.60;2.80;;;;;;;15.33;100.00;99339.06;10476006;28;20187;-75
2021/08/09 23:30:32;;;;;;;3.83;3.20;;;;;;;15.18;100.00;99341.28;10455767;28;20231;-75
2021/08/09 23:35:51;;;;;;;3.30;3.00;;;;;;;15.15;100.00;99342.13;10454917;28;20171;-75
2021/08/09 23:41:12;;;;;;;4.53;3.17;;;;;;;15.25;100.00;99337.63;10455562;28;20223;-74
2021/08/09 23:46:31;;;;;;;2.90;2.53;;;;;;;15.26;100.00;99334.44;10455554;28;20167;-75
2021/08/09 23:51:50;;;;;;;4.23;2.93;;;;;;;15.17;100.00;99325.88;10455688;28;20246;-76
2021/08/09 23:57:09;;;;;;;8.23;3.03;;;;;;;15.24;100.00;99320.22;10496658;28;20257;-75
